Time;durP1;ratioP1;P1;durP2;ratioP2;P2;SDS_P1;SDS_P2;PMS_P1;PMS_P2;Temp;Humidity;BMP_temperature;BMP_pressure;BME280_temperature;BME280_humidity;BME280_pressure;Samples;Min_cycle;Max_cycle;Signal;HPM_P1;HPM_P2
2023/06/18 00:02:11;;;;;;;;;7.00;6.00;24.40;55.90;;;;;;111408;1240;53985;-65
2023/06/18 00:04:38;;;;;;;;;10.00;8.50;24.40;56.10;;;;;;111624;1244;44377;-64
2023/06/18 00:07:05;;;;;;;;;6.00;6.00;24.40;55.90;;;;;;111263;1238;49284;-63
2023/06/18 00:09:32;;;;;;;;;7.00;6.00;24.40;56.00;;;;;;111210;1243;49641;-64
2023/06/18 00:11:59;;;;;;;;;7.00;6.25;24.40;55.80;;;;;;111239;1240;54754;-64
2023/06/18 00:14:26;;;;;;;;;7.00;6.50;24.40;55.90;;;;;;111263;1240;44976;-63
2023/06/18 00:16:53;;;;;;;;;8.25;6.75;24.40;55.90;;;;;;111293;1238;48450;-63
2023/06/18 00:19:20;;;;;;;;;6.50;6.00;24.40;56.40;;;;;;111236;1243;49544;-64
2023/06/18 00:21:47;;;;;;;;;8.75;6.75;24.40;55.80;;;;;;111244;1240;53046;-64
2023/06/18 00:24:14;;;;;;;;;9.00;8.00;24.40;55.80;;;;;;111262;1243;44069;-65
2023/06/18 00:26:41;;;;;;;;;7.00;6.00;24.40;55.80;;;;;;111399;1243;49702;-63
2023/06/18 00:29:08;;;;;;;;;7.75;7.00;24.40;55.90;;;;;;111295;1243;49070;-63
2023/06/18 00:31:35;;;;;;;;;6.00;5.00;24.40;55.90;;;;;;111341;1243;55312;-63
2023/06/18 00:34:06;;;;;;;;;7.00;7.00;24.40;55.90;;;;;;111255;1238;44788;-63
2023/06/18 00:36:34;;;;;;;;;8.75;8.00;24.40;55.90;;;;;;111297;1241;48648;-64
2023/06/18 00:39:02;;;;;;;;;7.00;6.00;24.40;55.90;;;;;;111321;1240;49761;-64
2023/06/18 00:41:31;;;;;;;;;7.25;6.75;24.40;55.90;;;;;;111348;1240;54172;-64
2023/06/18 00:43:58;;;;;;;;;9.00;7.00;24.40;55.90;;;;;;111274;1243;44466;-64
2023/06/18 00:46:26;;;;;;;;;9.25;8.50;24.40;55.90;;;;;;111328;1240;50045;-66
2023/06/18 00:48:56;;;;;;;;;7.75;6.75;24.40;55.90;;;;;;111319;1238;48744;-65
2023/06/18 00:51:26;;;;;;;;;6.75;5.75;24.40;55.90;;;;;;111248;1244;53698;-63
2023/06/18 00:53:56;;;;;;;;;7.00;6.00;24.40;55.90;;;;;;111215;1243;45503;-64
2023/06/18 00:56:25;;;;;;;;;8.00;7.00;24.40;55.90;;;;;;111325;1243;49005;-63
2023/06/18 00:58:52;;;;;;;;;7.00;6.00;24.40;55.90;;;;;;111215;1240;48972;-64
2023/06/18 01:01:20;;;;;;;;;5.75;5.75;24.40;55.80;;;;;;111228;1242;53117;-64
2023/06/18 01:03:48;;;;;;;;;7.00;6.00;24.40;56.00;;;;;;111237;1243;44791;-64
2023/06/18 01:06:18;;;;;;;;;7.50;6.00;24.40;55.90;;;;;;111340;1243;49889;-64
2023/06/18 01:08:48;;;;;;;;;6.75;6.25;24.40;55.90;;;;;;111187;1242;48553;-64
2023/06/18 01:11:19;;;;;;;;;7.00;5.00;24.40;55.90;;;;;;111206;1243;54018;-63
2023/06/18 01:13:47;;;;;;;;;7.00;6.00;24.40;55.90;;;;;;111229;1243;45098;-63
2023/06/18 01:16:16;;;;;;;;;7.67;6.67;24.40;55.90;;;;;;111241;1239;49079;-63
2023/06/18 01:18:45;;;;;;;;;6.00;5.75;24.40;55.90;;;;;;111211;1239;48724;-63
2023/06/18 01:21:19;;;;;;;;;5.75;5.00;24.40;55.90;;;;;;111132;1240;53712;-63
2023/06/18 01:23:52;;;;;;;;;7.00;6.00;24.30;55.80;;;;;;111238;1239;44412;-63
2023/06/18 01:26:21;;;;;;;;;7.00;7.00;24.40;55.90;;;;;;111302;1243;48849;-64
2023/06/18 01:28:51;;;;;;;;;7.00;6.50;24.40;55.90;;;;;;111272;1243;49026;-63
2023/06/18 01:31:23;;;;;;;;;8.50;6.75;24.30;55.80;;;;;;111253;1243;55406;-63
2023/06/18 01:33:53;;;;;;;;;5.00;4.25;24.40;55.90;;;;;;111288;1239;45158;-64
2023/06/18 01:36:59;;;;;;;;;6.00;6.00;24.40;55.80;;;;;;111356;1243;48270;-67
2023/06/18 01:39:32;;;;;;;;;7.00;6.00;24.40;55.90;;;;;;111090;1238;50339;-62
2023/06/18 01:42:11;;;;;;;;;7.00;7.00;24.40;55.80;;;;;;111249;1243;53404;-64
2023/06/18 01:44:38;;;;;;;;;7.00;7.00;24.40;55.70;;;;;;111244;1243;45918;-63
2023/06/18 01:47:06;;;;;;;;;7.00;6.00;24.40;55.70;;;;;;111262;1243;48351;-63
2023/06/18 01:49:33;;;;;;;;;7.00;6.00;24.40;55.70;;;;;;111297;1244;49310;-62
2023/06/18 01:52:02;;;;;;;;;7.00;5.00;24.40;55.70;;;;;;111279;1240;53365;-63
2023/06/18 01:54:30;;;;;;;;;7.00;6.00;24.40;55.70;;;;;;111250;1243;44784;-64
2023/06/18 01:56:57;;;;;;;;;6.50;6.00;24.30;55.70;;;;;;111257;1243;48370;-62
2023/06/18 01:59:43;;;;;;;;;5.00;4.00;24.40;55.80;;;;;;111245;1238;51395;-68
2023/06/18 02:02:27;;;;;;;;;6.00;6.00;24.30;55.70;;;;;;111193;1240;54760;-63
2023/06/18 02:05:13;;;;;;;;;5.75;5.00;24.30;55.70;;;;;;111284;1243;45842;-63
2023/06/18 02:07:57;;;;;;;;;5.75;5.25;24.30;55.80;;;;;;111211;1238;49842;-63
2023/06/18 02:10:41;;;;;;;;;6.75;5.75;24.30;55.70;;;;;;111239;1244;48759;-63
2023/06/18 02:13:25;;;;;;;;;7.33;6.00;24.30;55.80;;;;;;111216;1238;54862;-63
2023/06/18 02:16:10;;;;;;;;;7.00;6.00;24.30;55.80;;;;;;111286;1240;44099;-65
2023/06/18 02:18:54;;;;;;;;;7.00;6.00;24.30;56.00;;;;;;111228;1243;48679;-63
2023/06/18 02:21:39;;;;;;;;;7.75;6.75;24.30;55.80;;;;;;111190;1242;50354;-64
2023/06/18 02:24:23;;;;;;;;;7.75;6.75;24.30;55.80;;;;;;111309;1241;53143;-64
2023/06/18 02:27:07;;;;;;;;;7.00;6.25;24.30;55.90;;;;;;111253;1240;44860;-63
2023/06/18 02:29:52;;;;;;;;;7.00;6.00;24.30;56.00;;;;;;111236;1241;51456;-64
2023/06/18 02:32:38;;;;;;;;;7.00;7.00;24.20;55.60;;;;;;111264;1243;48650;-64
2023/06/18 02:35:22;;;;;;;;;7.00;6.75;24.20;55.80;;;;;;111244;1240;54635;-64
2023/06/18 02:38:06;;;;;;;;;6.67;6.00;24.20;55.70;;;;;;111240;1241;44762;-63
2023/06/18 02:40:51;;;;;;;;;7.75;7.00;24.30;55.80;;;;;;111227;1239;52191;-63
2023/06/18 02:43:18;;;;;;;;;6.00;6.00;24.30;55.80;;;;;;111244;1238;50714;-63
2023/06/18 02:45:45;;;;;;;;;6.75;6.25;24.20;55.70;;;;;;111291;1243;54078;-64
2023/06/18 02:48:12;;;;;;;;;6.00;5.00;24.20;55.90;;;;;;111353;1243;44416;-63
2023/06/18 02:50:39;;;;;;;;;6.75;5.75;24.20;55.70;;;;;;111265;1240;49183;-63
2023/06/18 02:53:06;;;;;;;;;7.00;6.75;24.20;55.70;;;;;;111287;1243;50034;-63
2023/06/18 02:55:33;;;;;;;;;7.00;4.00;24.20;55.70;;;;;;111274;1239;54025;-63
2023/06/18 02:58:02;;;;;;;;;6.00;5.25;24.20;55.70;;;;;;111280;1240;44387;-64
2023/06/18 03:00:30;;;;;;;;;8.00;6.00;24.20;55.70;;;;;;111293;1243;48591;-63
2023/06/18 03:02:57;;;;;;;;;8.00;6.75;24.20;55.70;;;;;;111298;1239;49934;-62
2023/06/18 03:05:24;;;;;;;;;8.00;7.00;24.20;55.70;;;;;;111320;1243;54644;-63
2023/06/18 03:07:51;;;;;;;;;6.50;5.75;24.20;55.70;;;;;;111320;1240;45219;-62
2023/06/18 03:10:18;;;;;;;;;6.00;5.00;24.20;55.70;;;;;;111209;1241;48898;-62
2023/06/18 03:12:45;;;;;;;;;7.00;6.00;24.20;55.60;;;;;;111303;1243;49162;-63
2023/06/18 03:15:13;;;;;;;;;6.00;5.25;24.20;55.60;;;;;;111416;1240;53472;-63
2023/06/18 03:17:39;;;;;;;;;6.50;5.50;24.20;55.60;;;;;;111222;1239;45445;-64
2023/06/18 03:20:08;;;;;;;;;6.25;5.75;24.20;55.60;;;;;;111242;1243;50012;-63
2023/06/18 03:22:35;;;;;;;;;5.00;4.75;24.20;55.60;;;;;;111258;1243;48994;-63
2023/06/18 03:25:03;;;;;;;;;5.75;5.25;24.20;55.60;;;;;;111292;1243;53211;-63
2023/06/18 03:27:31;;;;;;;;;5.50;4.50;24.20;55.60;;;;;;111358;1243;44923;-65
2023/06/18 03:29:58;;;;;;;;;6.00;5.00;24.20;56.10;;;;;;111229;1244;49738;-64
2023/06/18 03:32:25;;;;;;;;;6.00;5.00;24.20;55.60;;;;;;111284;1244;49899;-64
2023/06/18 03:34:52;;;;;;;;;6.00;5.00;24.20;55.60;;;;;;111288;1240;54159;-62
2023/06/18 03:37:20;;;;;;;;;6.00;6.00;24.20;55.60;;;;;;111247;1241;45101;-64
2023/06/18 03:39:47;;;;;;;;;6.67;5.67;24.20;55.60;;;;;;111294;1240;50444;-63
2023/06/18 03:42:14;;;;;;;;;5.67;4.67;24.20;55.60;;;;;;111299;1240;48732;-64
2023/06/18 03:44:41;;;;;;;;;7.00;6.00;24.20;55.70;;;;;;111255;1241;54190;-63
2023/06/18 03:47:08;;;;;;;;;5.25;5.00;24.20;55.60;;;;;;111272;1238;44328;-64
2023/06/18 03:49:35;;;;;;;;;5.75;5.00;24.20;55.50;;;;;;111259;1240;48464;-64
2023/06/18 03:52:02;;;;;;;;;6.00;4.00;24.20;55.50;;;;;;111273;1238;49194;-64
2023/06/18 03:54:29;;;;;;;;;7.00;7.00;24.20;55.70;;;;;;111327;1238;53737;-64
2023/06/18 03:56:56;;;;;;;;;6.75;5.00;24.20;55.60;;;;;;111268;1241;44369;-63
2023/06/18 03:59:22;;;;;;;;;7.00;5.00;24.20;55.60;;;;;;111271;1243;49545;-64
2023/06/18 04:01:50;;;;;;;;;5.75;4.75;24.20;55.60;;;;;;111262;1240;49351;-65
2023/06/18 04:04:17;;;;;;;;;6.00;5.50;24.10;55.50;;;;;;111323;1243;54950;-64
2023/06/18 04:06:44;;;;;;;;;7.00;6.00;24.10;55.50;;;;;;111300;1239;44708;-65
2023/06/18 04:09:11;;;;;;;;;6.00;5.75;24.20;55.60;;;;;;111324;1243;48802;-64
2023/06/18 04:11:38;;;;;;;;;6.00;6.00;24.10;55.50;;;;;;111261;1243;49466;-63
2023/06/18 04:14:05;;;;;;;;;7.75;5.00;24.10;55.40;;;;;;111287;1243;54117;-64
2023/06/18 04:16:32;;;;;;;;;6.00;6.00;24.20;55.60;;;;;;111298;1241;44722;-64
2023/06/18 04:18:59;;;;;;;;;7.00;6.00;24.10;55.50;;;;;;111307;1239;48972;-63
2023/06/18 04:21:26;;;;;;;;;5.25;4.50;24.10;55.50;;;;;;111259;1239;48925;-63
2023/06/18 04:23:54;;;;;;;;;5.00;5.00;24.10;55.60;;;;;;111258;1240;54044;-63
2023/06/18 04:26:38;;;;;;;;;6.00;5.00;24.10;55.60;;;;;;111217;1238;47042;-64
2023/06/18 04:29:05;;;;;;;;;6.75;5.75;24.10;55.50;;;;;;111314;1239;48472;-63
2023/06/18 04:31:32;;;;;;;;;7.50;6.50;24.10;55.50;;;;;;111282;1243;49857;-65
2023/06/18 04:33:59;;;;;;;;;6.00;5.50;24.10;55.40;;;;;;111347;1243;53556;-64
2023/06/18 04:36:27;;;;;;;;;6.25;6.00;24.20;55.50;;;;;;111152;1239;44799;-64
2023/06/18 04:38:54;;;;;;;;;5.75;4.75;24.10;55.40;;;;;;111284;1238;48495;-64
2023/06/18 04:41:21;;;;;;;;;6.75;5.75;24.20;55.40;;;;;;111294;1243;49069;-63
2023/06/18 04:43:48;;;;;;;;;6.50;5.75;24.20;55.40;;;;;;111232;1238;53827;-69
2023/06/18 04:46:15;;;;;;;;;5.75;5.00;24.20;55.50;;;;;;111304;1241;46053;-64
2023/06/18 04:48:43;;;;;;;;;5.00;5.00;24.10;55.40;;;;;;111418;1238;48203;-68
2023/06/18 04:51:10;;;;;;;;;6.75;6.00;24.20;55.40;;;;;;111222;1242;50876;-63
2023/06/18 04:53:37;;;;;;;;;7.00;6.00;24.20;55.40;;;;;;111463;1243;54040;-63
2023/06/18 04:56:04;;;;;;;;;6.00;5.00;24.10;55.60;;;;;;111180;1238;44601;-63
2023/06/18 04:58:36;;;;;;;;;6.75;5.75;24.20;55.40;;;;;;111286;1240;48897;-63
2023/06/18 05:01:03;;;;;;;;;8.00;6.00;24.20;55.40;;;;;;111270;1242;50933;-64
2023/06/18 05:03:30;;;;;;;;;5.00;4.00;24.10;55.30;;;;;;111272;1238;53914;-63
2023/06/18 05:05:57;;;;;;;;;6.00;5.00;24.20;55.40;;;;;;111211;1243;44299;-63
2023/06/18 05:08:24;;;;;;;;;6.50;6.00;24.10;55.40;;;;;;111235;1243;49029;-63
2023/06/18 05:10:51;;;;;;;;;6.67;6.00;24.10;55.40;;;;;;111211;1238;49415;-64
2023/06/18 05:13:19;;;;;;;;;6.00;6.00;24.10;55.30;;;;;;111261;1242;53946;-63
2023/06/18 05:15:46;;;;;;;;;8.00;7.00;24.10;55.40;;;;;;111101;1242;44585;-66
2023/06/18 05:18:14;;;;;;;;;5.25;5.00;24.10;55.60;;;;;;111342;1243;49929;-64
2023/06/18 05:20:42;;;;;;;;;5.00;4.25;24.10;55.40;;;;;;111240;1243;48811;-64
2023/06/18 05:23:09;;;;;;;;;8.00;6.00;24.10;55.40;;;;;;111243;1243;53691;-61
2023/06/18 05:25:37;;;;;;;;;4.00;4.00;24.10;55.40;;;;;;111297;1238;45722;-62
2023/06/18 05:28:05;;;;;;;;;6.00;5.00;24.10;55.40;;;;;;111284;1243;48416;-61
2023/06/18 05:30:31;;;;;;;;;6.75;5.75;24.10;55.50;;;;;;111258;1241;48432;-62
2023/06/18 05:32:58;;;;;;;;;5.75;5.50;24.20;55.40;;;;;;111241;1239;53890;-63
2023/06/18 05:35:25;;;;;;;;;5.00;4.00;24.10;55.50;;;;;;111094;1243;44977;-63
2023/06/18 05:37:52;;;;;;;;;5.75;4.75;24.20;55.40;;;;;;111222;1244;49230;-62
2023/06/18 05:40:19;;;;;;;;;6.00;5.25;24.20;55.40;;;;;;111279;1243;49009;-65
2023/06/18 05:42:47;;;;;;;;;5.75;5.75;24.20;55.40;;;;;;111375;1241;53997;-61
2023/06/18 05:45:14;;;;;;;;;5.75;5.25;24.10;55.30;;;;;;111220;1240;44977;-64
2023/06/18 05:47:41;;;;;;;;;6.00;5.75;24.10;56.90;;;;;;111316;1239;49234;-63
2023/06/18 05:50:08;;;;;;;;;7.50;6.75;24.10;57.40;;;;;;111265;1244;48791;-64
2023/06/18 05:52:35;;;;;;;;;7.00;6.00;24.10;57.50;;;;;;111248;1238;53629;-61
2023/06/18 05:55:03;;;;;;;;;7.00;6.75;24.10;57.20;;;;;;111139;1243;44611;-61
2023/06/18 05:57:30;;;;;;;;;9.00;8.00;24.20;58.30;;;;;;111352;1243;49135;-61
2023/06/18 05:59:57;;;;;;;;;9.00;8.00;24.20;58.80;;;;;;111391;1238;49964;-62
2023/06/18 06:02:24;;;;;;;;;8.00;8.00;24.20;59.40;;;;;;111341;1243;54207;-62
2023/06/18 06:04:51;;;;;;;;;9.00;7.00;24.20;58.90;;;;;;111123;1240;44925;-63
2023/06/18 06:07:18;;;;;;;;;8.25;8.00;24.20;58.70;;;;;;111283;1242;48987;-65
2023/06/18 06:09:44;;;;;;;;;9.75;8.00;24.20;58.20;;;;;;111275;1243;49150;-64
2023/06/18 06:12:12;;;;;;;;;8.00;7.00;24.20;58.10;;;;;;111290;1243;53819;-64
2023/06/18 06:14:39;;;;;;;;;7.25;7.00;24.30;57.90;;;;;;111129;1241;44712;-66
2023/06/18 06:17:06;;;;;;;;;7.75;6.75;24.20;57.80;;;;;;111290;1242;48975;-65
2023/06/18 06:19:33;;;;;;;;;8.75;7.25;24.30;58.40;;;;;;111275;1243;49384;-65
2023/06/18 06:22:00;;;;;;;;;7.00;6.00;24.30;57.70;;;;;;111286;1244;54353;-65
2023/06/18 06:24:27;;;;;;;;;8.00;6.00;24.30;57.70;;;;;;111127;1243;44087;-65
2023/06/18 06:26:55;;;;;;;;;8.00;8.00;24.30;57.60;;;;;;111258;1240;48871;-64
2023/06/18 06:29:22;;;;;;;;;12.00;9.67;24.30;57.70;;;;;;111310;1243;48775;-65
2023/06/18 06:31:49;;;;;;;;;8.50;7.75;24.30;57.50;;;;;;111238;1238;53464;-67
2023/06/18 06:34:16;;;;;;;;;11.00;10.33;24.30;57.50;;;;;;111358;1243;44482;-65
2023/06/18 06:36:43;;;;;;;;;9.00;7.75;24.30;57.40;;;;;;111258;1243;50105;-67
2023/06/18 06:39:10;;;;;;;;;8.75;7.50;24.30;57.40;;;;;;111236;1244;50942;-65
2023/06/18 06:41:37;;;;;;;;;8.50;7.50;24.40;57.60;;;;;;111298;1243;53418;-65
2023/06/18 06:44:04;;;;;;;;;8.00;7.33;24.30;57.00;;;;;;111338;1244;45045;-65
2023/06/18 06:46:31;;;;;;;;;8.67;8.33;24.30;57.10;;;;;;111354;1243;49328;-67
2023/06/18 06:48:58;;;;;;;;;8.25;8.00;24.30;57.10;;;;;;111187;1244;48954;-66
2023/06/18 06:51:25;;;;;;;;;10.25;8.75;24.30;57.20;;;;;;111295;1238;54106;-64
2023/06/18 06:53:52;;;;;;;;;10.67;9.00;24.30;57.00;;;;;;111277;1238;44396;-69
2023/06/18 06:56:19;;;;;;;;;11.50;7.75;24.30;57.20;;;;;;111647;1240;48871;-66
2023/06/18 06:58:46;;;;;;;;;8.50;7.25;24.30;57.00;;;;;;111306;1243;49427;-65
2023/06/18 07:01:13;;;;;;;;;10.50;8.25;24.30;56.50;;;;;;111353;1243;53412;-66
2023/06/18 07:03:40;;;;;;;;;9.25;9.00;24.30;57.10;;;;;;111376;1243;44546;-66
2023/06/18 07:06:07;;;;;;;;;8.75;7.75;24.30;56.90;;;;;;111669;1243;48724;-66
2023/06/18 07:08:34;;;;;;;;;8.67;7.00;24.30;56.90;;;;;;111346;1240;48713;-65
2023/06/18 07:11:01;;;;;;;;;8.00;7.75;24.40;56.80;;;;;;111259;1243;54446;-66
2023/06/18 07:13:28;;;;;;;;;9.75;7.75;24.30;56.70;;;;;;111360;1243;44091;-66
2023/06/18 07:15:55;;;;;;;;;11.00;8.00;24.40;56.80;;;;;;111313;1243;49871;-65
2023/06/18 07:18:22;;;;;;;;;9.33;9.00;24.30;56.70;;;;;;111322;1238;49589;-65
2023/06/18 07:20:49;;;;;;;;;8.75;6.75;24.40;56.70;;;;;;111230;1243;54305;-65
2023/06/18 07:23:16;;;;;;;;;9.50;8.25;24.30;56.60;;;;;;111299;1240;44705;-64
2023/06/18 07:25:43;;;;;;;;;11.00;10.00;24.40;56.70;;;;;;111301;1243;49186;-66
2023/06/18 07:28:10;;;;;;;;;8.25;6.75;24.40;56.70;;;;;;111345;1243;49334;-66
2023/06/18 07:30:37;;;;;;;;;8.25;8.00;24.40;56.70;;;;;;111313;1240;54083;-65
2023/06/18 07:33:04;;;;;;;;;8.00;6.50;24.40;56.60;;;;;;111280;1238;44443;-66
2023/06/18 07:35:31;;;;;;;;;9.00;8.50;24.40;56.60;;;;;;111658;1239;48566;-65
2023/06/18 07:37:58;;;;;;;;;9.00;8.00;24.40;56.60;;;;;;111265;1241;48631;-66
2023/06/18 07:40:28;;;;;;;;;8.00;7.75;24.40;56.50;;;;;;111237;1243;54679;-65
2023/06/18 07:42:55;;;;;;;;;8.00;7.75;24.40;56.40;;;;;;111250;1243;44501;-65
2023/06/18 07:45:22;;;;;;;;;8.25;7.75;24.40;56.40;;;;;;111296;1243;48671;-66
2023/06/18 07:47:49;;;;;;;;;10.00;8.00;24.40;56.30;;;;;;111307;1239;49275;-66
2023/06/18 07:50:16;;;;;;;;;8.00;7.00;24.40;56.50;;;;;;111359;1243;54596;-66
2023/06/18 07:52:42;;;;;;;;;10.50;9.00;24.40;56.30;;;;;;111482;1243;44906;-65
2023/06/18 07:55:10;;;;;;;;;8.00;7.00;24.40;56.40;;;;;;111332;1241;49151;-66
2023/06/18 07:57:38;;;;;;;;;9.00;7.00;24.40;56.40;;;;;;111262;1243;49621;-65
2023/06/18 08:00:06;;;;;;;;;8.67;7.67;24.40;56.60;;;;;;111258;1239;54005;-66
2023/06/18 08:02:33;;;;;;;;;9.75;7.75;24.40;56.40;;;;;;111222;1243;45051;-66
2023/06/18 08:05:01;;;;;;;;;6.00;5.00;24.40;56.40;;;;;;111642;1243;48628;-66
2023/06/18 08:07:29;;;;;;;;;7.75;7.50;24.40;56.40;;;;;;111343;1240;49400;-66
2023/06/18 08:09:56;;;;;;;;;10.25;8.00;24.40;56.40;;;;;;111309;1243;53586;-66
2023/06/18 08:12:23;;;;;;;;;8.75;7.75;24.40;56.30;;;;;;111400;1240;44610;-65
2023/06/18 08:14:49;;;;;;;;;9.75;8.00;24.40;56.30;;;;;;111283;1243;49229;-66
2023/06/18 08:17:17;;;;;;;;;8.00;7.75;24.50;56.30;;;;;;111386;1238;49224;-64
2023/06/18 08:19:45;;;;;;;;;8.75;8.25;24.50;56.30;;;;;;111326;1240;54815;-67
2023/06/18 08:22:12;;;;;;;;;7.00;6.00;24.50;56.30;;;;;;111327;1243;44971;-66
2023/06/18 08:24:39;;;;;;;;;8.00;7.00;24.50;56.20;;;;;;111629;1238;48351;-68
2023/06/18 08:27:06;;;;;;;;;7.00;6.00;24.50;56.40;;;;;;111329;1243;49924;-65
2023/06/18 08:29:34;;;;;;;;;8.00;7.00;24.50;56.20;;;;;;111305;1243;53516;-66
2023/06/18 08:32:04;;;;;;;;;8.00;8.00;24.50;56.30;;;;;;111407;1242;44864;-65
2023/06/18 08:34:32;;;;;;;;;7.75;6.75;24.50;56.10;;;;;;111617;1240;48663;-66
2023/06/18 08:36:59;;;;;;;;;6.67;6.00;24.50;56.20;;;;;;111376;1238;49543;-66
2023/06/18 08:39:26;;;;;;;;;10.00;9.00;24.60;56.20;;;;;;111315;1240;53414;-66
2023/06/18 08:41:54;;;;;;;;;8.75;6.00;24.60;56.10;;;;;;111361;1243;44157;-66
2023/06/18 08:44:23;;;;;;;;;10.25;8.00;24.60;56.10;;;;;;111571;1244;48882;-66
2023/06/18 08:46:52;;;;;;;;;7.00;6.00;24.60;56.20;;;;;;111384;1244;48574;-69
2023/06/18 08:49:19;;;;;;;;;9.00;7.00;24.60;56.10;;;;;;111358;1243;53697;-68
2023/06/18 08:51:47;;;;;;;;;7.00;6.00;24.60;56.10;;;;;;111399;1240;45290;-67
2023/06/18 08:54:18;;;;;;;;;8.00;8.00;24.60;56.00;;;;;;111434;1243;49745;-66
2023/06/18 08:56:47;;;;;;;;;7.00;6.00;24.60;56.00;;;;;;111320;1243;49484;-66
2023/06/18 08:59:14;;;;;;;;;9.00;7.00;24.60;56.00;;;;;;111268;1243;53396;-65
2023/06/18 09:01:43;;;;;;;;;7.00;6.00;24.70;56.00;;;;;;111267;1244;44697;-64
2023/06/18 09:04:11;;;;;;;;;7.00;6.75;24.70;56.00;;;;;;111418;1243;48738;-66
2023/06/18 09:06:39;;;;;;;;;6.00;5.25;24.70;56.00;;;;;;111465;1244;48837;-65
2023/06/18 09:09:06;;;;;;;;;6.00;5.25;24.70;56.40;;;;;;111279;1243;53532;-65
2023/06/18 09:11:33;;;;;;;;;10.67;7.67;24.70;56.00;;;;;;111256;1240;44771;-66
2023/06/18 09:14:00;;;;;;;;;7.00;6.00;24.80;56.20;;;;;;111391;1244;49232;-68
2023/06/18 09:16:28;;;;;;;;;8.75;6.75;24.80;56.00;;;;;;111576;1242;49530;-65
2023/06/18 09:18:55;;;;;;;;;8.00;6.75;24.80;56.00;;;;;;111234;1242;53966;-66
2023/06/18 09:21:34;;;;;;;;;8.50;7.50;24.80;56.10;;;;;;111407;1238;44035;-67
2023/06/18 09:24:01;;;;;;;;;6.00;5.50;24.80;56.10;;;;;;111368;1238;49409;-66
2023/06/18 09:26:33;;;;;;;;;7.00;6.00;24.80;55.90;;;;;;111548;1240;49918;-66
2023/06/18 09:29:07;;;;;;;;;7.25;6.00;24.90;56.10;;;;;;111330;1243;54214;-65
2023/06/18 09:31:35;;;;;;;;;7.25;6.75;24.90;55.90;;;;;;111378;1244;44323;-65
2023/06/18 09:34:15;;;;;;;;;7.67;6.67;24.90;55.80;;;;;;111278;1243;48450;-65
2023/06/18 09:36:44;;;;;;;;;5.00;5.00;24.90;55.70;;;;;;111312;1243;49450;-65
2023/06/18 09:39:21;;;;;;;;;7.00;6.00;24.90;55.70;;;;;;111328;1243;53985;-66
2023/06/18 09:41:50;;;;;;;;;9.00;8.00;25.00;55.90;;;;;;111292;1240;44331;-66
2023/06/18 09:44:18;;;;;;;;;6.25;6.00;25.00;55.80;;;;;;111304;1241;49015;-66
2023/06/18 09:46:47;;;;;;;;;7.00;5.00;25.00;55.80;;;;;;111275;1243;48530;-66
2023/06/18 09:49:19;;;;;;;;;8.00;7.00;25.00;55.30;;;;;;111189;1241;54680;-66
2023/06/18 09:51:46;;;;;;;;;7.25;5.50;25.00;55.70;;;;;;111351;1238;45198;-66
2023/06/18 09:54:13;;;;;;;;;6.25;5.75;25.00;55.70;;;;;;111532;1240;49701;-66
2023/06/18 09:56:59;;;;;;;;;6.00;6.00;25.10;55.70;;;;;;111497;1243;50036;-65
2023/06/18 09:59:27;;;;;;;;;6.00;5.00;25.10;55.70;;;;;;111210;1244;53681;-66
2023/06/18 10:01:55;;;;;;;;;7.00;5.75;25.10;55.60;;;;;;111534;1239;44945;-69
2023/06/18 10:04:22;;;;;;;;;7.00;5.67;25.20;55.80;;;;;;111601;1240;49098;-67
2023/06/18 10:07:02;;;;;;;;;9.50;5.75;25.20;55.60;;;;;;111508;1238;49117;-67
2023/06/18 10:09:35;;;;;;;;;5.50;5.00;25.20;55.50;;;;;;111204;1239;53515;-71
2023/06/18 10:12:04;;;;;;;;;7.75;7.25;25.20;55.50;;;;;;111357;1243;44774;-69
2023/06/18 10:14:32;;;;;;;;;7.00;6.67;25.30;55.50;;;;;;111667;1238;48353;-69
2023/06/18 10:17:08;;;;;;;;;9.00;7.00;25.30;55.50;;;;;;111434;1240;49187;-68
2023/06/18 10:19:47;;;;;;;;;7.00;6.00;25.30;55.60;;;;;;111386;1243;53966;-68
2023/06/18 10:22:15;;;;;;;;;6.00;5.50;25.30;55.40;;;;;;111466;1240;45117;-68
2023/06/18 10:25:05;;;;;;;;;7.75;5.75;25.40;55.40;;;;;;111363;1240;48646;-67
2023/06/18 10:27:33;;;;;;;;;6.25;6.00;25.40;55.40;;;;;;111311;1240;49213;-70
2023/06/18 10:30:01;;;;;;;;;7.75;5.75;25.40;55.30;;;;;;111395;1240;53409;-68
2023/06/18 10:32:31;;;;;;;;;6.00;5.75;25.40;55.50;;;;;;111374;1241;44581;-67
2023/06/18 10:34:59;;;;;;;;;6.50;5.75;25.50;55.40;;;;;;111160;1243;48568;-68
2023/06/18 10:37:30;;;;;;;;;5.25;4.00;25.50;55.50;;;;;;111299;1243;49216;-68
2023/06/18 10:39:58;;;;;;;;;6.00;5.25;25.50;55.70;;;;;;111281;1239;53675;-70
2023/06/18 10:42:24;;;;;;;;;8.67;7.00;25.50;55.50;;;;;;111297;1243;44546;-65
2023/06/18 10:44:59;;;;;;;;;6.75;6.00;25.50;55.70;;;;;;111335;1241;48779;-65
2023/06/18 10:47:31;;;;;;;;;8.00;6.75;25.50;55.60;;;;;;111280;1238;49442;-64
2023/06/18 10:50:07;;;;;;;;;9.75;7.00;25.50;55.60;;;;;;111251;1242;54269;-65
2023/06/18 10:52:42;;;;;;;;;6.00;6.00;25.60;55.60;;;;;;111297;1238;44122;-64
2023/06/18 10:55:21;;;;;;;;;7.00;6.00;25.60;55.60;;;;;;111122;1243;48523;-63
2023/06/18 10:57:51;;;;;;;;;7.00;6.00;25.60;55.70;;;;;;111259;1243;49549;-64
2023/06/18 11:00:25;;;;;;;;;7.25;6.50;25.60;55.40;;;;;;111246;1243;53856;-65
2023/06/18 11:03:02;;;;;;;;;8.00;6.50;25.70;56.00;;;;;;111255;1240;44504;-63
2023/06/18 11:05:32;;;;;;;;;6.00;5.00;25.70;55.50;;;;;;111068;1244;48533;-63
2023/06/18 11:08:08;;;;;;;;;7.50;5.00;25.70;55.40;;;;;;111209;1241;49255;-64
2023/06/18 11:10:44;;;;;;;;;8.00;7.00;25.70;55.40;;;;;;111275;1243;54298;-63
2023/06/18 11:13:11;;;;;;;;;7.50;5.75;25.70;55.40;;;;;;111315;1243;44325;-65
2023/06/18 11:15:57;;;;;;;;;6.00;6.00;25.70;55.40;;;;;;111151;1240;50058;-64
2023/06/18 11:18:28;;;;;;;;;7.75;5.75;25.70;55.60;;;;;;111246;1240;49309;-64
2023/06/18 11:20:56;;;;;;;;;9.00;7.00;25.80;55.30;;;;;;111210;1238;53106;-64
2023/06/18 11:23:24;;;;;;;;;8.00;7.00;25.80;55.40;;;;;;111300;1243;45396;-64
2023/06/18 11:25:52;;;;;;;;;7.50;6.00;25.80;55.30;;;;;;111298;1243;48833;-65
2023/06/18 11:28:20;;;;;;;;;7.50;6.50;25.80;55.30;;;;;;110619;1243;799717;-64
2023/06/18 11:30:50;;;;;;;;;6.25;6.00;25.80;55.30;;;;;;111261;1243;54412;-64
2023/06/18 11:33:25;;;;;;;;;6.00;5.75;25.80;55.30;;;;;;111284;1239;44857;-64
2023/06/18 11:35:53;;;;;;;;;7.00;6.00;25.80;55.50;;;;;;111277;1239;48750;-65
2023/06/18 11:38:22;;;;;;;;;7.00;6.00;25.80;55.30;;;;;;111230;1240;49242;-64
2023/06/18 11:40:53;;;;;;;;;6.00;5.00;25.80;55.40;;;;;;111236;1243;54551;-63
2023/06/18 11:43:21;;;;;;;;;7.67;6.67;25.80;55.20;;;;;;111150;1243;44591;-62
2023/06/18 11:45:48;;;;;;;;;7.00;6.00;25.80;55.20;;;;;;111256;1239;49179;-64
2023/06/18 11:48:16;;;;;;;;;9.00;6.00;25.80;55.40;;;;;;111270;1240;48668;-65
2023/06/18 11:50:43;;;;;;;;;7.00;6.00;25.80;55.10;;;;;;111208;1243;53859;-65
2023/06/18 11:53:14;;;;;;;;;6.00;6.00;25.80;55.10;;;;;;111299;1240;44663;-63
2023/06/18 11:55:41;;;;;;;;;6.67;5.67;25.80;55.30;;;;;;111284;1243;49199;-64
2023/06/18 11:58:08;;;;;;;;;6.75;5.00;25.80;55.10;;;;;;111270;1240;49177;-64
2023/06/18 12:00:35;;;;;;;;;6.00;5.00;25.80;55.10;;;;;;111222;1242;54128;-63
2023/06/18 12:03:02;;;;;;;;;8.25;5.50;25.80;55.10;;;;;;111334;1243;45290;-64
2023/06/18 12:05:39;;;;;;;;;6.50;6.00;25.80;55.10;;;;;;111287;1243;48917;-64
2023/06/18 12:08:10;;;;;;;;;6.75;5.75;25.80;55.10;;;;;;111305;1243;49328;-64
2023/06/18 12:10:41;;;;;;;;;5.25;4.75;25.80;55.10;;;;;;111324;1238;54247;-64
2023/06/18 12:13:26;;;;;;;;;7.75;6.00;25.80;55.10;;;;;;111266;1243;44463;-64
2023/06/18 12:15:59;;;;;;;;;6.33;5.33;25.90;55.30;;;;;;111284;1239;48537;-64
2023/06/18 12:18:32;;;;;;;;;7.00;6.00;25.90;55.10;;;;;;111290;1243;48857;-64
2023/06/18 12:21:00;;;;;;;;;7.00;5.00;25.90;55.00;;;;;;111285;1240;54070;-64
2023/06/18 12:23:27;;;;;;;;;5.00;5.00;25.90;55.00;;;;;;111156;1241;45064;-64
2023/06/18 12:25:54;;;;;;;;;5.25;5.25;25.90;55.20;;;;;;111112;1240;48729;-66
2023/06/18 12:28:23;;;;;;;;;6.00;5.00;25.90;55.00;;;;;;111278;1240;49044;-66
2023/06/18 12:30:53;;;;;;;;;6.50;6.00;25.90;55.20;;;;;;111265;1238;56224;-65
2023/06/18 12:33:21;;;;;;;;;5.50;5.00;25.90;55.10;;;;;;111267;1240;44993;-65
2023/06/18 12:35:50;;;;;;;;;6.75;5.75;25.90;55.00;;;;;;111385;1238;48801;-64
2023/06/18 12:38:18;;;;;;;;;5.00;4.00;25.90;55.20;;;;;;111369;1239;50147;-64
2023/06/18 12:40:51;;;;;;;;;6.67;5.67;25.90;55.00;;;;;;111424;1243;53725;-63
2023/06/18 12:43:19;;;;;;;;;6.00;5.25;25.90;54.90;;;;;;111382;1243;44738;-64
2023/06/18 12:45:47;;;;;;;;;6.50;5.00;25.90;54.90;;;;;;111651;1240;49098;-64
2023/06/18 12:48:16;;;;;;;;;8.50;7.25;25.90;55.00;;;;;;111421;1238;49591;-64